createdAt,value
2023-03-04T00:00:31.800Z,56.91
2023-03-04T00:03:33.367Z,56.92
2023-03-04T00:06:34.934Z,56.79
2023-03-04T00:09:36.817Z,57.04
2023-03-04T00:12:38.528Z,57.14
2023-03-04T00:15:40.254Z,57.06
2023-03-04T00:18:41.874Z,57.07
2023-03-04T00:21:43.516Z,57.09
2023-03-04T00:24:45.051Z,57.04
2023-03-04T00:27:47.314Z,56.94
2023-03-04T00:30:48.970Z,57.07
2023-03-04T00:33:50.578Z,57.14
2023-03-04T00:36:52.143Z,57.09
2023-03-04T00:39:53.752Z,57.05
2023-03-04T00:42:55.306Z,57.08
2023-03-04T00:45:56.904Z,57.17
2023-03-04T00:48:58.526Z,57.02
2023-03-04T00:52:00.082Z,57.11
2023-03-04T00:55:01.621Z,57.22
2023-03-04T00:58:03.534Z,57.06
2023-03-04T01:01:05.301Z,57.02
2023-03-04T01:04:06.921Z,57.23
2023-03-04T01:07:08.918Z,57.08
2023-03-04T01:10:12.347Z,57.22
2023-03-04T01:13:13.900Z,57.31
2023-03-04T01:16:15.477Z,57.26
2023-03-04T01:19:17.151Z,57.17
2023-03-04T01:22:19.159Z,57.33
2023-03-04T01:25:20.726Z,57.20
2023-03-04T01:28:22.274Z,57.25
2023-03-04T01:31:23.940Z,57.06
2023-03-04T01:34:25.475Z,57.34
2023-03-04T01:37:27.015Z,57.26
2023-03-04T01:40:28.674Z,57.34
2023-03-04T01:43:31.418Z,57.26
2023-03-04T01:46:33.206Z,57.13
2023-03-04T01:49:34.900Z,57.10
2023-03-04T01:52:38.423Z,57.36
2023-03-04T01:55:40.024Z,57.24
2023-03-04T01:58:41.724Z,57.13
2023-03-04T02:01:46.874Z,57.08
2023-03-04T02:04:49.048Z,57.39
2023-03-04T02:07:53.233Z,57.28
2023-03-04T02:10:55.358Z,57.32
2023-03-04T02:13:57.098Z,57.33
2023-03-04T02:16:58.963Z,57.14
2023-03-04T02:20:22.168Z,57.26
2023-03-04T02:23:35.427Z,57.34
2023-03-04T02:26:37.478Z,57.10
2023-03-04T02:29:39.291Z,57.25
2023-03-04T02:32:40.981Z,57.21
2023-03-04T02:35:42.640Z,57.14
2023-03-04T02:38:44.330Z,57.32
2023-03-04T02:41:50.010Z,57.26
2023-03-04T02:45:00.866Z,57.31
2023-03-04T02:48:02.887Z,57.49
2023-03-04T02:51:04.814Z,57.28
2023-03-04T02:54:18.555Z,57.52
2023-03-04T02:57:20.433Z,57.39
2023-03-04T03:00:22.046Z,57.25
2023-03-04T03:03:23.623Z,57.43
2023-03-04T03:06:25.390Z,57.31
2023-03-04T03:09:26.952Z,57.38
2023-03-04T03:12:28.513Z,57.52
2023-03-04T03:15:30.150Z,57.56
2023-03-04T03:18:31.750Z,57.40
2023-03-04T03:21:33.379Z,57.42
2023-03-04T03:24:34.997Z,57.48
2023-03-04T03:27:36.587Z,57.45
2023-03-04T03:30:38.284Z,57.56
2023-03-04T03:33:39.844Z,57.40
2023-03-04T03:36:41.455Z,57.28
2023-03-04T03:39:43.037Z,57.44
2023-03-04T03:42:44.611Z,57.47
2023-03-04T03:45:46.339Z,57.63
2023-03-04T03:48:47.925Z,57.61
2023-03-04T03:51:49.583Z,57.66
2023-03-04T03:54:51.146Z,57.42
2023-03-04T03:57:52.900Z,57.48
2023-03-04T04:00:56.486Z,57.55
2023-03-04T04:04:00.432Z,57.70
2023-03-04T04:07:02.009Z,57.53
2023-03-04T04:10:05.412Z,57.71
2023-03-04T04:13:06.962Z,57.73
2023-03-04T04:16:10.281Z,57.80
2023-03-04T04:19:19.944Z,57.78
2023-03-04T04:22:21.721Z,57.77
2023-03-04T04:25:23.359Z,57.79
2023-03-04T04:28:25.149Z,57.72
2023-03-04T04:31:26.734Z,57.79
2023-03-04T04:34:28.336Z,58.04
2023-03-04T04:37:29.983Z,57.82
2023-03-04T04:40:31.592Z,58.01
2023-03-04T04:43:33.172Z,58.01
2023-03-04T04:46:35.187Z,58.09
2023-03-04T04:49:37.040Z,58.01
2023-03-04T04:52:38.646Z,57.88
2023-03-04T04:55:40.344Z,58.29
2023-03-04T04:58:43.042Z,57.97
2023-03-04T05:01:44.664Z,58.12
2023-03-04T05:04:46.417Z,57.92
2023-03-04T05:07:47.965Z,58.00
2023-03-04T05:10:49.549Z,58.15
2023-03-04T05:13:51.586Z,57.80
2023-03-04T05:16:53.227Z,57.90
2023-03-04T05:19:54.752Z,58.01
2023-03-04T05:22:56.343Z,58.19
2023-03-04T05:25:57.885Z,58.03
2023-03-04T05:28:59.434Z,58.14
2023-03-04T05:32:01.016Z,58.16
2023-03-04T05:35:02.622Z,58.32
2023-03-04T05:38:06.314Z,58.25
2023-03-04T05:41:08.505Z,58.10
2023-03-04T05:44:10.070Z,58.25
2023-03-04T05:47:11.590Z,58.28
2023-03-04T05:50:13.162Z,58.52
2023-03-04T05:53:14.824Z,58.45
2023-03-04T05:56:18.778Z,58.20
2023-03-04T05:59:20.906Z,58.22
2023-03-04T06:02:22.623Z,58.38
2023-03-04T06:05:24.213Z,58.24
2023-03-04T06:08:26.379Z,58.31
2023-03-04T06:11:27.923Z,58.59
2023-03-04T06:14:29.556Z,58.52
2023-03-04T06:17:31.126Z,58.49
2023-03-04T06:20:32.780Z,58.41
2023-03-04T06:23:34.319Z,58.51
2023-03-04T06:26:35.932Z,58.49
2023-03-04T06:29:37.458Z,58.43
2023-03-04T06:32:39.052Z,58.61
2023-03-04T06:35:40.611Z,58.55
2023-03-04T06:38:42.240Z,58.70
2023-03-04T06:41:43.814Z,58.52
2023-03-04T06:44:45.409Z,58.60
2023-03-04T06:47:46.981Z,58.47
2023-03-04T06:50:48.654Z,58.65
2023-03-04T06:53:50.365Z,58.54
2023-03-04T06:56:52.067Z,58.61
2023-03-04T06:59:53.956Z,58.54
2023-03-04T07:02:55.534Z,58.59
2023-03-04T07:05:57.102Z,58.64
2023-03-04T07:08:58.917Z,58.83
2023-03-04T07:12:00.532Z,58.64
2023-03-04T07:15:02.618Z,58.52
2023-03-04T07:18:04.197Z,58.69
2023-03-04T07:21:06.864Z,58.56
2023-03-04T07:24:08.545Z,58.72
2023-03-04T07:27:10.198Z,58.72
2023-03-04T07:30:12.230Z,58.76
2023-03-04T07:33:14.537Z,58.64
2023-03-04T07:36:16.458Z,58.74
2023-03-04T07:39:18.040Z,58.79
2023-03-04T07:42:19.597Z,58.46
2023-03-04T07:45:22.514Z,58.71
2023-03-04T07:48:24.091Z,58.52
2023-03-04T07:51:27.036Z,58.55
2023-03-04T07:54:28.576Z,58.58
2023-03-04T07:57:30.152Z,58.52
2023-03-04T08:00:31.748Z,58.29
2023-03-04T08:03:33.353Z,58.55
2023-03-04T08:06:35.433Z,58.38
2023-03-04T08:09:36.957Z,58.61
2023-03-04T08:12:38.521Z,58.34
2023-03-04T08:15:42.384Z,58.26
2023-03-04T08:18:46.331Z,58.55
2023-03-04T08:21:47.893Z,58.28
2023-03-04T08:24:49.444Z,58.40
2023-03-04T08:27:51.024Z,58.52
2023-03-04T08:30:54.439Z,58.49
2023-03-04T08:33:56.655Z,58.27
2023-03-04T08:36:58.257Z,58.23
2023-03-04T08:39:59.801Z,58.53
2023-03-04T08:43:01.316Z,58.53
2023-03-04T08:46:03.735Z,58.82
2023-03-04T08:49:05.938Z,58.62
2023-03-04T08:52:07.593Z,58.38
2023-03-04T08:55:09.291Z,58.33
2023-03-04T08:58:11.553Z,58.24
2023-03-04T09:01:14.431Z,58.32
2023-03-04T09:04:16.015Z,58.21
2023-03-04T09:07:18.138Z,58.17
2023-03-04T09:10:20.189Z,58.33
2023-03-04T09:13:26.070Z,58.26
2023-03-04T09:16:28.052Z,58.27
2023-03-04T09:19:29.891Z,58.34
2023-03-04T09:22:31.571Z,58.34
2023-03-04T09:25:33.336Z,58.15
2023-03-04T09:28:34.836Z,58.24
2023-03-04T09:31:36.479Z,58.23
2023-03-04T09:34:39.872Z,58.03
2023-03-04T09:37:41.914Z,58.02
2023-03-04T09:40:46.874Z,58.19
2023-03-04T09:43:50.339Z,58.04
2023-03-04T09:46:52.967Z,58.19
2023-03-04T09:50:07.169Z,58.02
2023-03-04T09:53:14.555Z,58.03
2023-03-04T09:56:16.304Z,58.02
2023-03-04T09:59:17.814Z,58.11
2023-03-04T10:02:44.051Z,57.85
2023-03-04T10:06:04.539Z,57.93
2023-03-04T10:09:28.344Z,58.02
2023-03-04T10:12:34.376Z,58.23
2023-03-04T10:15:44.152Z,58.29
2023-03-04T10:19:14.263Z,58.41
2023-03-04T10:22:42.289Z,58.04
2023-03-04T10:25:46.835Z,58.11
2023-03-04T10:28:49.507Z,57.82
2023-03-04T10:31:51.994Z,57.90
2023-03-04T10:34:53.607Z,58.46
2023-03-04T10:37:55.284Z,58.53
2023-03-04T10:40:58.757Z,58.01
2023-03-04T10:44:02.459Z,57.82
2023-03-04T10:47:10.494Z,57.92
2023-03-04T10:50:22.677Z,57.98
2023-03-04T10:53:35.978Z,58.01
2023-03-04T10:56:45.753Z,58.03
2023-03-04T10:59:50.540Z,57.83
2023-03-04T11:02:52.233Z,57.79
2023-03-04T11:06:15.700Z,57.72
2023-03-04T11:09:31.559Z,57.80
2023-03-04T11:12:35.260Z,57.58
2023-03-04T11:16:04.542Z,57.80
2023-03-04T11:19:14.659Z,57.62
2023-03-04T11:22:18.471Z,57.71
2023-03-04T11:25:31.141Z,58.00
2023-03-04T11:28:48.225Z,57.79
2023-03-04T11:31:55.606Z,57.56
2023-03-04T11:35:16.600Z,57.62
2023-03-04T11:38:27.135Z,57.40
2023-03-04T11:41:39.511Z,57.40
2023-03-04T11:44:41.680Z,57.54
2023-03-04T11:48:00.319Z,57.52
2023-03-04T11:51:12.998Z,57.73
2023-03-04T11:54:25.821Z,57.84
2023-03-04T11:57:39.628Z,57.82
2023-03-04T12:01:04.578Z,57.78
2023-03-04T12:04:22.279Z,57.75
2023-03-04T12:07:48.776Z,57.73
2023-03-04T12:11:02.071Z,57.76
2023-03-04T12:14:06.572Z,57.67
2023-03-04T12:17:29.597Z,57.62
2023-03-04T12:20:56.265Z,57.68
2023-03-04T12:24:10.051Z,57.66
2023-03-04T12:27:27.019Z,57.71
2023-03-04T12:30:46.880Z,57.50
2023-03-04T12:34:04.810Z,57.64
2023-03-04T12:37:35.930Z,57.44
2023-03-04T12:40:45.202Z,57.61
2023-03-04T12:43:58.081Z,57.67
2023-03-04T12:47:12.943Z,57.42
2023-03-04T12:50:29.475Z,57.56
2023-03-04T12:53:36.186Z,57.54
2023-03-04T12:56:44.311Z,57.41
2023-03-04T12:59:59.827Z,57.38
2023-03-04T13:03:51.867Z,57.45
2023-03-04T13:07:17.058Z,57.45
2023-03-04T13:10:23.722Z,57.41
2023-03-04T13:13:37.430Z,57.38
2023-03-04T13:16:50.752Z,57.25
2023-03-04T13:20:18.535Z,57.34
2023-03-04T13:23:29.495Z,57.35
2023-03-04T13:26:34.793Z,57.28
2023-03-04T13:29:37.294Z,57.30
2023-03-04T13:32:38.937Z,57.21
2023-03-04T13:35:46.928Z,57.35
2023-03-04T13:39:00.591Z,57.35
2023-03-04T13:42:03.338Z,57.31
2023-03-04T13:45:05.863Z,57.29
2023-03-04T13:48:31.748Z,57.17
2023-03-04T13:51:44.095Z,57.13
2023-03-04T13:54:45.840Z,57.16
2023-03-04T13:57:51.633Z,56.98
2023-03-04T14:00:55.274Z,57.17
2023-03-04T14:03:56.904Z,57.10
2023-03-04T14:07:00.486Z,56.96
2023-03-04T14:10:15.025Z,56.94
2023-03-04T14:13:16.643Z,57.17
2023-03-04T14:16:23.938Z,57.43
2023-03-04T14:19:32.427Z,57.44
2023-03-04T14:22:39.924Z,57.40
2023-03-04T14:25:41.461Z,57.58
2023-03-04T14:28:51.678Z,57.28
2023-03-04T14:31:54.487Z,57.50
2023-03-04T14:35:06.508Z,57.63
2023-03-04T14:38:23.215Z,57.46
2023-03-04T14:41:30.772Z,57.51
2023-03-04T14:44:40.683Z,57.57
2023-03-04T14:47:47.394Z,57.48
2023-03-04T14:50:53.548Z,57.44
2023-03-04T14:53:56.719Z,57.23
2023-03-04T14:57:00.807Z,57.27
2023-03-04T15:00:41.049Z,57.32
2023-03-04T15:03:52.888Z,57.36
2023-03-04T15:06:54.604Z,57.12
2023-03-04T15:09:56.468Z,58.10
2023-03-04T15:13:01.601Z,58.21
2023-03-04T15:16:03.429Z,57.71
2023-03-04T15:19:23.480Z,57.23
2023-03-04T15:22:25.139Z,57.11
2023-03-04T15:25:27.279Z,57.53
2023-03-04T15:28:37.629Z,57.46
2023-03-04T15:31:39.176Z,57.37
2023-03-04T15:34:40.714Z,57.53
2023-03-04T15:37:43.198Z,57.60
2023-03-04T15:40:44.778Z,57.42
2023-03-04T15:43:46.300Z,57.63
2023-03-04T15:46:47.854Z,57.53
2023-03-04T15:49:49.932Z,57.55
2023-03-04T15:52:52.394Z,57.49
2023-03-04T15:55:54.317Z,57.59
2023-03-04T15:59:25.229Z,57.58
2023-03-04T16:02:30.723Z,57.65
2023-03-04T16:05:36.829Z,57.46
2023-03-04T16:08:39.842Z,57.58
2023-03-04T16:11:45.506Z,57.48
2023-03-04T16:14:47.103Z,57.52
2023-03-04T16:17:48.885Z,57.50
2023-03-04T16:20:51.450Z,57.50
2023-03-04T16:23:54.644Z,57.76
2023-03-04T16:26:56.220Z,57.61
2023-03-04T16:29:57.843Z,57.69
2023-03-04T16:32:59.417Z,57.60
2023-03-04T16:36:01.168Z,57.63
2023-03-04T16:39:07.913Z,57.35
2023-03-04T16:42:15.874Z,57.66
2023-03-04T16:45:26.205Z,57.74
2023-03-04T16:48:27.792Z,57.33
2023-03-04T16:51:30.586Z,57.58
2023-03-04T16:54:34.683Z,57.73
2023-03-04T16:57:36.302Z,57.60
2023-03-04T17:00:37.921Z,57.26
2023-03-04T17:03:39.450Z,57.14
2023-03-04T17:06:41.216Z,57.30
2023-03-04T17:09:43.129Z,57.34
2023-03-04T17:12:44.860Z,57.16
2023-03-04T17:15:46.988Z,57.42
2023-03-04T17:18:49.532Z,57.15
2023-03-04T17:21:51.123Z,57.27
2023-03-04T17:24:52.664Z,57.46
2023-03-04T17:27:54.234Z,57.41
2023-03-04T17:30:55.838Z,57.23
2023-03-04T17:33:57.471Z,57.25
2023-03-04T17:36:59.643Z,57.04
2023-03-04T17:40:03.295Z,57.12
2023-03-04T17:43:11.303Z,57.26
2023-03-04T17:46:15.031Z,57.34
2023-03-04T17:49:17.129Z,57.42
2023-03-04T17:52:19.264Z,57.50
2023-03-04T17:55:20.963Z,57.21
2023-03-04T17:58:23.811Z,57.50
2023-03-04T18:01:25.524Z,57.12
2023-03-04T18:04:27.220Z,57.54
2023-03-04T18:07:29.408Z,57.19
2023-03-04T18:10:31.162Z,57.22
2023-03-04T18:13:32.712Z,57.11
2023-03-04T18:16:34.399Z,57.34
2023-03-04T18:19:36.053Z,57.06
2023-03-04T18:22:37.661Z,57.06
2023-03-04T18:25:39.705Z,57.12
2023-03-04T18:28:41.567Z,57.19
2023-03-04T18:31:43.340Z,57.41
2023-03-04T18:34:44.913Z,57.40
2023-03-04T18:37:46.848Z,57.19
2023-03-04T18:40:48.440Z,57.12
2023-03-04T18:43:50.031Z,57.15
2023-03-04T18:46:55.917Z,56.91
2023-03-04T18:49:57.504Z,57.19
2023-03-04T18:52:59.129Z,57.34
2023-03-04T18:56:25.864Z,57.45
2023-03-04T18:59:42.547Z,57.07
2023-03-04T19:03:00.346Z,56.88
2023-03-04T19:06:02.012Z,57.09
2023-03-04T19:09:05.610Z,56.88
2023-03-04T19:12:07.260Z,57.25
2023-03-04T19:15:10.324Z,57.09
2023-03-04T19:18:11.929Z,56.95
2023-03-04T19:21:13.482Z,57.21
2023-03-04T19:24:15.082Z,57.08
2023-03-04T19:27:16.692Z,57.22
2023-03-04T19:30:18.671Z,56.94
2023-03-04T19:33:20.541Z,57.16
2023-03-04T19:36:22.132Z,57.31
2023-03-04T19:39:23.787Z,57.03
2023-03-04T19:42:25.331Z,57.27
2023-03-04T19:45:27.040Z,57.21
2023-03-04T19:48:28.841Z,57.27
2023-03-04T19:51:32.716Z,57.10
2023-03-04T19:54:34.281Z,56.82
2023-03-04T19:57:36.273Z,57.05
2023-03-04T20:00:38.063Z,57.24
2023-03-04T20:03:39.808Z,57.33
2023-03-04T20:06:44.231Z,57.00
2023-03-04T20:09:45.849Z,56.95
2023-03-04T20:12:47.557Z,57.29
2023-03-04T20:15:49.118Z,57.29
2023-03-04T20:18:50.982Z,57.24
2023-03-04T20:21:52.585Z,57.16
2023-03-04T20:24:54.933Z,57.48
2023-03-04T20:27:57.732Z,57.40
2023-03-04T20:31:12.256Z,57.18
2023-03-04T20:34:14.629Z,57.22
2023-03-04T20:37:16.474Z,57.13
2023-03-04T20:40:18.246Z,57.10
2023-03-04T20:43:19.764Z,57.16
2023-03-04T20:46:27.706Z,57.33
2023-03-04T20:49:29.832Z,57.07
2023-03-04T20:52:31.959Z,57.04
2023-03-04T20:55:33.521Z,56.98
2023-03-04T20:58:35.982Z,57.23
2023-03-04T21:01:42.049Z,57.15
2023-03-04T21:04:44.046Z,57.34
2023-03-04T21:07:45.703Z,57.47
2023-03-04T21:10:50.062Z,57.18
2023-03-04T21:13:57.701Z,57.21
2023-03-04T21:17:01.993Z,57.21
2023-03-04T21:20:04.463Z,57.34
2023-03-04T21:23:06.090Z,57.51
2023-03-04T21:26:07.762Z,57.62
2023-03-04T21:29:09.326Z,57.54
2023-03-04T21:32:23.722Z,57.62
2023-03-04T21:35:25.784Z,57.51
2023-03-04T21:38:27.394Z,57.52
2023-03-04T21:41:31.112Z,57.74
2023-03-04T21:44:48.468Z,57.63
2023-03-04T21:47:51.253Z,57.32
2023-03-04T21:50:54.268Z,57.27
2023-03-04T21:53:56.174Z,57.26
2023-03-04T21:56:57.778Z,57.30
2023-03-04T21:59:59.453Z,57.62
2023-03-04T22:03:01.034Z,57.53
2023-03-04T22:06:10.461Z,57.38
2023-03-04T22:09:12.882Z,57.52
2023-03-04T22:12:15.861Z,57.60
2023-03-04T22:15:18.007Z,57.26
2023-03-04T22:18:19.571Z,57.19
2023-03-04T22:21:21.843Z,57.55
2023-03-04T22:24:23.524Z,57.31
2023-03-04T22:27:25.132Z,57.26
2023-03-04T22:30:26.699Z,57.33
2023-03-04T22:33:29.398Z,57.22
2023-03-04T22:36:33.021Z,57.35
2023-03-04T22:39:34.606Z,57.29
2023-03-04T22:42:36.164Z,57.49
2023-03-04T22:45:37.918Z,57.09
2023-03-04T22:48:40.049Z,57.58
2023-03-04T22:51:43.717Z,57.34
2023-03-04T22:54:45.235Z,57.27
2023-03-04T22:57:47.212Z,57.60
2023-03-04T23:00:48.810Z,57.24
2023-03-04T23:03:50.489Z,57.37
2023-03-04T23:06:52.171Z,57.23
2023-03-04T23:09:53.701Z,57.48
2023-03-04T23:12:55.306Z,57.53
2023-03-04T23:15:56.926Z,57.43
2023-03-04T23:18:59.694Z,57.54
2023-03-04T23:22:02.562Z,57.55
2023-03-04T23:25:04.556Z,57.72
2023-03-04T23:28:06.163Z,57.68
2023-03-04T23:31:07.751Z,57.61
2023-03-04T23:34:09.414Z,57.82
2023-03-04T23:37:10.994Z,57.55
2023-03-04T23:40:13.142Z,57.85
2023-03-04T23:43:14.705Z,57.71
2023-03-04T23:46:16.332Z,57.59
2023-03-04T23:49:18.141Z,57.52
2023-03-04T23:52:19.718Z,57.92
2023-03-04T23:55:21.363Z,57.54
2023-03-04T23:58:22.975Z,57.82
